Time;durP1;ratioP1;P1;durP2;ratioP2;P2;SDS_P1;SDS_P2;PMS_P1;PMS_P2;Temp;Humidity;BMP_temperature;BMP_pressure;BME280_temperature;BME280_humidity;BME280_pressure;Samples;Min_cycle;Max_cycle;Signal;HPM_P1;HPM_P2
2023/10/29 09:09:06;;;;;;;34.10;15.60;;;;;;;3.80;100.00;98889.33;102048;1298;601049;-66
2023/10/29 09:11:54;;;;;;;31.40;14.60;;;;;;;3.80;100.00;98888.67;105825;1266;59390;-66
2023/10/29 09:14:43;;;;;;;34.30;14.90;;;;;;;3.85;100.00;98877.45;105043;1261;61960;-67
2023/10/29 09:17:31;;;;;;;25.40;12.30;;;;;;;3.86;100.00;98865.09;105067;1260;69046;-66
2023/10/29 09:20:19;;;;;;;23.10;10.70;;;;;;;3.92;100.00;98862.56;105201;1265;67487;-64
2023/10/29 09:23:08;;;;;;;20.00;10.40;;;;;;;3.96;100.00;98855.75;105538;1263;184238;-66
2023/10/29 09:25:59;;;;;;;18.30;9.70;;;;;;;3.98;100.00;98853.19;105266;1258;61115;-67
2023/10/29 09:28:47;;;;;;;18.80;9.80;;;;;;;3.99;100.00;98848.21;105453;1258;60926;-66
2023/10/29 09:31:36;;;;;;;18.40;10.20;;;;;;;3.98;100.00;98847.73;105456;1262;72415;-68
2023/10/29 09:34:25;;;;;;;18.40;9.70;;;;;;;3.98;100.00;98841.27;106040;1263;69520;-65
2023/10/29 09:37:14;;;;;;;18.20;9.00;;;;;;;4.02;100.00;98841.34;105135;1258;72926;-67
2023/10/29 09:40:03;;;;;;;20.10;10.00;;;;;;;4.07;100.00;98840.61;105305;1260;61514;-65
2023/10/29 09:42:53;;;;;;;18.20;9.20;;;;;;;4.07;100.00;98838.36;105479;1258;60900;-64
2023/10/29 09:45:45;;;;;;;16.20;9.20;;;;;;;4.02;100.00;98827.95;105746;1256;70850;-66
2023/10/29 09:48:35;;;;;;;18.50;9.10;;;;;;;3.98;100.00;98823.87;105418;1259;68763;-68
2023/10/29 09:51:24;;;;;;;18.40;9.90;;;;;;;3.96;100.00;98818.20;105721;1261;74178;-67
2023/10/29 09:54:12;;;;;;;17.60;9.30;;;;;;;3.96;100.00;98809.79;105506;1258;59285;-66
2023/10/29 09:57:00;;;;;;;18.70;9.60;;;;;;;3.96;100.00;98803.30;105670;1257;60593;-68
2023/10/29 09:59:48;;;;;;;18.30;8.90;;;;;;;3.98;100.00;98803.35;105971;1254;71437;-65
2023/10/29 10:02:55;;;;;;;18.00;8.90;;;;;;;3.97;100.00;98802.93;105698;1254;68395;-67
2023/10/29 10:05:49;;;;;;;18.60;8.50;;;;;;;4.00;100.00;98795.31;106097;1257;73871;-65
2023/10/29 10:08:37;;;;;;;16.60;7.80;;;;;;;4.00;100.00;98793.55;106368;1254;60999;-62
2023/10/29 10:11:26;;;;;;;17.00;8.30;;;;;;;4.04;100.00;98793.95;105888;1257;60063;-65
2023/10/29 10:14:26;;;;;;;17.20;7.80;;;;;;;4.09;100.00;98796.25;105554;1254;72049;-65
2023/10/29 10:17:15;;;;;;;16.40;7.70;;;;;;;4.11;100.00;98796.63;105688;1256;66897;-65
2023/10/29 10:20:10;;;;;;;15.70;8.20;;;;;;;4.14;100.00;98793.95;105655;1254;73394;-63
2023/10/29 10:23:05;;;;;;;15.30;7.20;;;;;;;4.18;100.00;98797.04;105563;1258;60101;-66
2023/10/29 10:25:59;;;;;;;14.30;7.80;;;;;;;4.18;100.00;98792.80;105754;1254;60846;-66
2023/10/29 10:28:56;;;;;;;12.70;6.80;;;;;;;4.19;100.00;98788.48;105735;1260;72191;-67
2023/10/29 10:31:44;;;;;;;14.50;7.60;;;;;;;4.20;100.00;98786.48;105543;1260;67178;-69
2023/10/29 10:34:36;;;;;;;14.60;7.00;;;;;;;4.22;100.00;98784.61;105363;1260;71904;-64
2023/10/29 10:37:25;;;;;;;13.00;7.10;;;;;;;4.25;100.00;98773.47;105582;1261;59430;-66
2023/10/29 10:40:24;;;;;;;14.50;7.50;;;;;;;4.29;100.00;98761.67;105330;1260;60920;-65
2023/10/29 10:43:19;;;;;;;12.80;6.70;;;;;;;4.31;100.00;98757.14;105022;1260;71890;-71
2023/10/29 10:46:11;;;;;;;14.90;6.60;;;;;;;4.34;100.00;98752.70;105078;1267;69400;-66
2023/10/29 10:49:02;;;;;;;14.70;7.10;;;;;;;4.39;100.00;98740.52;105236;1267;73949;-67
2023/10/29 10:51:56;;;;;;;13.60;6.60;;;;;;;4.45;100.00;98739.45;105059;1266;59369;-66
2023/10/29 10:54:45;;;;;;;10.90;5.90;;;;;;;4.55;100.00;98731.27;105087;1264;59496;-65
2023/10/29 10:57:36;;;;;;;12.90;6.80;;;;;;;4.55;100.00;98723.53;105137;1263;71458;-66
2023/10/29 11:00:24;;;;;;;11.70;5.80;;;;;;;4.57;100.00;98711.85;105400;1263;68314;-65
2023/10/29 11:03:12;;;;;;;13.00;6.60;;;;;;;4.59;100.00;98709.95;105770;1261;73717;-63
2023/10/29 11:06:20;;;;;;;13.90;6.70;;;;;;;4.61;100.00;98699.27;105690;1267;60774;-69
2023/10/29 11:09:14;;;;;;;12.30;6.10;;;;;;;4.59;100.00;98687.20;105870;1257;59332;-64
2023/10/29 11:12:04;;;;;;;12.60;6.30;;;;;;;4.64;100.00;98683.55;106531;1260;72994;-69
2023/10/29 11:15:14;;;;;;;12.80;5.60;;;;;;;4.68;100.00;98678.85;105397;1260;66277;-66
2023/10/29 11:18:02;;;;;;;12.30;6.30;;;;;;;4.68;100.00;98672.70;105504;1259;72544;-63
2023/10/29 11:20:50;;;;;;;11.30;6.00;;;;;;;4.64;100.00;98665.27;105538;1260;59362;-62
2023/10/29 11:23:38;;;;;;;12.00;5.90;;;;;;;4.62;100.00;98664.36;105597;1260;60816;-63
2023/10/29 11:26:28;;;;;;;12.40;6.30;;;;;;;4.64;100.00;98655.23;105462;1257;1003255;-64
2023/10/29 11:29:42;;;;;;;11.70;6.40;;;;;;;4.67;100.00;98651.84;105699;1258;68432;-63
2023/10/29 11:32:31;;;;;;;10.40;5.00;;;;;;;4.69;100.00;98635.08;105568;1259;72107;-65
2023/10/29 11:35:22;;;;;;;11.20;5.50;;;;;;;4.69;100.00;98631.39;105502;1259;59267;-64
2023/10/29 11:38:33;;;;;;;12.10;6.10;;;;;;;4.70;100.00;98621.21;105303;1257;60812;-65
2023/10/29 11:41:38;;;;;;;10.20;5.00;;;;;;;4.68;100.00;98620.52;105366;1256;72260;-63
2023/10/29 11:44:32;;;;;;;12.50;5.30;;;;;;;4.69;100.00;98609.92;105350;1260;69262;-63
2023/10/29 11:47:21;;;;;;;10.00;5.00;;;;;;;4.69;100.00;98610.60;105583;1257;72591;-62
2023/10/29 11:50:11;;;;;;;10.30;5.50;;;;;;;4.70;100.00;98604.05;104615;1261;1003323;-65
2023/10/29 11:52:59;;;;;;;10.80;5.80;;;;;;;4.70;100.00;98597.68;105674;1255;59432;-63
2023/10/29 11:55:50;;;;;;;10.10;5.60;;;;;;;4.71;100.00;98594.61;105469;1260;71823;-61
2023/10/29 11:58:38;;;;;;;11.30;5.80;;;;;;;4.68;100.00;98581.15;105645;1256;69480;-60
2023/10/29 12:01:27;;;;;;;11.70;5.90;;;;;;;4.67;100.00;98574.79;106139;1256;72699;-63
2023/10/29 12:04:16;;;;;;;10.30;5.40;;;;;;;4.72;100.00;98584.74;106082;1262;60683;-62
2023/10/29 12:07:04;;;;;;;11.10;4.70;;;;;;;4.72;100.00;98578.23;105825;1257;59755;-64
2023/10/29 12:10:04;;;;;;;9.10;4.20;;;;;;;4.72;100.00;98559.04;105234;1262;71143;-64
2023/10/29 12:12:54;;;;;;;10.30;4.10;;;;;;;4.74;100.00;98545.21;105751;1255;69570;-64
2023/10/29 12:15:47;;;;;;;9.80;4.50;;;;;;;4.77;100.00;98527.97;105171;1257;70474;-63
2023/10/29 12:18:38;;;;;;;9.20;4.00;;;;;;;4.78;100.00;98523.40;105685;1257;59967;-65
2023/10/29 12:21:26;;;;;;;8.70;3.70;;;;;;;4.82;100.00;98521.42;106114;1259;62074;-63
2023/10/29 12:24:15;;;;;;;9.10;4.10;;;;;;;4.85;100.00;98518.20;105511;1262;71268;-64
2023/10/29 12:27:05;;;;;;;9.00;4.30;;;;;;;4.85;100.00;98517.68;105228;1259;68736;-63
2023/10/29 12:29:53;;;;;;;9.20;4.50;;;;;;;4.89;100.00;98502.09;106195;1258;74213;-64
2023/10/29 12:32:42;;;;;;;10.40;5.00;;;;;;;4.91;100.00;98512.27;106378;1256;59234;-67
2023/10/29 12:35:37;;;;;;;11.50;5.30;;;;;;;4.97;100.00;98494.07;105375;1260;61806;-66
2023/10/29 12:38:26;;;;;;;11.00;5.70;;;;;;;4.98;100.00;98490.27;105575;1256;71704;-66
2023/10/29 12:41:16;;;;;;;13.10;6.40;;;;;;;5.00;100.00;98486.26;105675;1256;68499;-64
2023/10/29 12:44:15;;;;;;;13.50;6.40;;;;;;;5.02;100.00;98482.41;106869;1257;72368;-67
2023/10/29 12:47:03;;;;;;;11.80;6.30;;;;;;;5.04;100.00;98468.91;105374;1262;61117;-63
2023/10/29 12:50:03;;;;;;;13.40;7.00;;;;;;;5.07;100.00;98462.27;105841;1258;59342;-63
2023/10/29 12:52:52;;;;;;;13.60;7.40;;;;;;;5.10;100.00;98450.31;106967;1253;71028;-63
2023/10/29 12:55:44;;;;;;;13.20;6.80;;;;;;;5.15;100.00;98451.30;105917;1258;67568;-62
2023/10/29 12:58:32;;;;;;;14.40;7.60;;;;;;;5.20;100.00;98446.13;105681;1254;71872;-62
2023/10/29 13:01:21;;;;;;;14.60;8.10;;;;;;;5.23;100.00;98451.69;105558;1253;59977;-64
2023/10/29 13:04:10;;;;;;;15.30;8.50;;;;;;;5.26;100.00;98445.32;105559;1259;60812;-65
2023/10/29 13:07:07;;;;;;;17.10;9.10;;;;;;;5.31;100.00;98437.02;108033;1253;72932;-64
2023/10/29 13:09:59;;;;;;;15.70;8.80;;;;;;;5.35;100.00;98438.74;105625;1256;67119;-66
2023/10/29 13:12:48;;;;;;;16.80;9.40;;;;;;;5.40;100.00;98441.56;105614;1254;72845;-64
2023/10/29 13:15:37;;;;;;;18.00;9.60;;;;;;;5.44;100.00;98438.40;106030;1256;60835;-66
2023/10/29 13:18:27;;;;;;;18.30;9.70;;;;;;;5.47;100.00;98437.92;105293;1259;59365;-65
2023/10/29 13:21:15;;;;;;;17.80;9.70;;;;;;;5.50;100.00;98433.30;106201;1253;71824;-65
2023/10/29 13:24:05;;;;;;;17.50;9.30;;;;;;;5.53;100.00;98427.77;105794;1254;67463;-66
2023/10/29 13:26:54;;;;;;;16.90;9.30;;;;;;;5.56;100.00;98425.42;105878;1262;72596;-64
2023/10/29 13:29:43;;;;;;;19.80;9.10;;;;;;;5.59;100.00;98419.91;105274;1256;59376;-65
2023/10/29 13:32:31;;;;;;;20.00;9.50;;;;;;;5.63;100.00;98422.55;105672;1253;60896;-62
2023/10/29 13:35:19;;;;;;;17.60;9.30;;;;;;;5.65;100.00;98419.25;105649;1258;70552;-67
2023/10/29 13:38:09;;;;;;;18.90;9.30;;;;;;;5.67;100.00;98406.23;105309;1254;68509;-64
2023/10/29 13:40:59;;;;;;;18.20;9.90;;;;;;;5.71;100.00;98397.30;105532;1253;73461;-63
2023/10/29 13:43:47;;;;;;;19.30;10.40;;;;;;;5.74;100.00;98393.20;105598;1259;61058;-64
2023/10/29 13:46:36;;;;;;;17.60;9.90;;;;;;;5.77;100.00;98372.13;105665;1261;60676;-67
2023/10/29 13:49:24;;;;;;;20.00;9.70;;;;;;;5.80;100.00;98372.20;105335;1254;70167;-72
2023/10/29 13:52:13;;;;;;;18.10;10.00;;;;;;;5.85;100.00;98360.60;105547;1254;67288;-63
2023/10/29 13:55:01;;;;;;;16.50;9.70;;;;;;;5.89;100.00;98355.15;105645;1253;72974;-64
2023/10/29 13:57:49;;;;;;;20.80;11.40;;;;;;;5.93;100.00;98354.61;105691;1257;59151;-64
2023/10/29 14:00:37;;;;;;;22.10;11.30;;;;;;;5.98;100.00;98352.59;105664;1253;60922;-64
2023/10/29 14:03:26;;;;;;;18.50;10.50;;;;;;;6.04;100.00;98355.11;105699;1254;72659;-67
2023/10/29 14:06:16;;;;;;;21.20;10.80;;;;;;;6.09;100.00;98364.15;105699;1254;69143;-65
2023/10/29 14:09:04;;;;;;;22.10;11.90;;;;;;;6.16;100.00;98365.54;105586;1254;73496;-65
2023/10/29 14:11:52;;;;;;;19.50;10.90;;;;;;;6.22;100.00;98359.73;105526;1253;59367;-64
2023/10/29 14:14:41;;;;;;;23.90;13.30;;;;;;;6.26;100.00;98359.15;105480;1253;61068;-63
2023/10/29 14:17:29;;;;;;;23.80;13.40;;;;;;;6.32;100.00;98361.48;105496;1261;73768;-63
2023/10/29 14:20:17;;;;;;;25.80;13.70;;;;;;;6.39;100.00;98349.92;105705;1253;67229;-63
2023/10/29 14:23:06;;;;;;;24.30;13.90;;;;;;;6.45;100.00;98352.05;105729;1254;72260;-65
2023/10/29 14:25:54;;;;;;;23.20;13.60;;;;;;;6.52;100.00;98352.33;105572;1253;59631;-66
2023/10/29 14:28:43;;;;;;;26.60;13.70;;;;;;;6.59;100.00;98353.50;105297;1253;60985;-63
2023/10/29 14:31:34;;;;;;;26.10;16.50;;;;;;;6.65;100.00;98355.27;105741;1254;72678;-64
2023/10/29 14:34:23;;;;;;;27.90;14.50;;;;;;;6.72;100.00;98354.48;105195;1255;67814;-67
2023/10/29 14:37:12;;;;;;;25.50;14.70;;;;;;;6.78;100.00;98353.95;105395;1258;73182;-65
2023/10/29 14:40:00;;;;;;;25.30;14.40;;;;;;;6.84;100.00;98358.55;105524;1260;60008;-64
2023/10/29 14:42:49;;;;;;;25.40;14.30;;;;;;;6.88;100.00;98350.19;105642;1258;59747;-63
2023/10/29 14:45:41;;;;;;;27.70;15.70;;;;;;;6.92;100.00;98327.82;105750;1254;71840;-63
2023/10/29 14:48:30;;;;;;;24.80;14.90;;;;;;;6.96;100.00;98331.98;105431;1253;69276;-63
2023/10/29 14:51:18;;;;;;;27.50;15.60;;;;;;;7.03;100.00;98326.17;105609;1253;74269;-69
2023/10/29 14:54:08;;;;;;;26.90;15.10;;;;;;;7.09;100.00;98322.77;105493;1254;59619;-66
2023/10/29 14:56:56;;;;;;;27.40;15.30;;;;;;;7.15;100.00;98318.36;105466;1254;59515;-66
2023/10/29 14:59:44;;;;;;;27.60;14.70;;;;;;;7.19;100.00;98313.55;105871;1257;72787;-69
2023/10/29 15:02:33;;;;;;;27.40;15.00;;;;;;;7.24;100.00;98325.48;105813;1253;67134;-65
2023/10/29 15:05:22;;;;;;;28.30;15.90;;;;;;;7.29;100.00;98336.66;105498;1259;73042;-68
2023/10/29 15:08:10;;;;;;;28.90;15.90;;;;;;;7.33;100.00;98336.44;105570;1259;60736;-66
2023/10/29 15:10:59;;;;;;;24.70;13.90;;;;;;;7.38;100.00;98344.98;105712;1256;60713;-70
2023/10/29 15:13:47;;;;;;;24.20;13.90;;;;;;;7.42;100.00;98334.98;105385;1260;74182;-70
2023/10/29 15:16:35;;;;;;;27.50;15.10;;;;;;;7.45;100.00;98328.98;105326;1255;66978;-68
2023/10/29 15:19:23;;;;;;;24.80;14.20;;;;;;;7.48;100.00;98330.34;105385;1259;72988;-67
2023/10/29 15:22:29;;;;;;;27.80;13.70;;;;;;;7.50;100.00;98317.46;105462;1259;59384;-69
2023/10/29 15:25:17;;;;;;;27.70;15.50;;;;;;;7.52;100.00;98319.94;105208;1260;60912;-65
2023/10/29 15:28:06;;;;;;;29.90;15.80;;;;;;;7.55;100.00;98321.28;105306;1259;72817;-65
2023/10/29 15:31:07;;;;;;;29.80;16.30;;;;;;;7.56;100.00;98316.70;105316;1263;67942;-67
2023/10/29 15:33:56;;;;;;;27.50;16.30;;;;;;;7.58;100.00;98312.10;105222;1259;71427;-65
2023/10/29 15:36:44;;;;;;;28.70;16.10;;;;;;;7.61;100.00;98313.42;105092;1260;59354;-67
2023/10/29 15:39:32;;;;;;;27.30;16.50;;;;;;;7.64;100.00;98303.83;105976;1259;60644;-68
2023/10/29 15:42:24;;;;;;;29.10;16.90;;;;;;;7.66;100.00;98297.39;107102;1259;71662;-66
2023/10/29 15:45:12;;;;;;;28.00;15.90;;;;;;;7.69;100.00;98297.89;105110;1259;65834;-65
2023/10/29 15:48:00;;;;;;;26.80;16.10;;;;;;;7.72;100.00;98289.48;105367;1259;72092;-65
2023/10/29 15:50:53;;;;;;;26.90;15.40;;;;;;;7.72;100.00;98280.42;105272;1263;61754;-67
2023/10/29 15:53:41;;;;;;;26.50;15.60;;;;;;;7.77;100.00;98287.41;105080;1265;62086;-68
2023/10/29 15:56:32;;;;;;;27.00;16.60;;;;;;;7.82;100.00;98284.59;105099;1262;73366;-66
2023/10/29 15:59:22;;;;;;;27.80;15.20;;;;;;;7.89;100.00;98288.06;105838;1265;68146;-68
2023/10/29 16:02:10;;;;;;;25.60;15.00;;;;;;;7.95;100.00;98301.11;106183;1261;72398;-67
2023/10/29 16:04:58;;;;;;;25.00;13.50;;;;;;;8.02;100.00;98303.29;105626;1264;61396;-67
2023/10/29 16:07:50;;;;;;;32.20;17.20;;;;;;;8.07;100.00;98300.09;105942;1260;59549;-69
2023/10/29 16:10:40;;;;;;;29.10;16.60;;;;;;;8.12;100.00;98297.50;105820;1258;72261;-67
2023/10/29 16:13:28;;;;;;;26.70;15.60;;;;;;;8.16;100.00;98293.96;105748;1257;68094;-65
2023/10/29 16:16:16;;;;;;;27.60;15.10;;;;;;;8.20;100.00;98294.27;108954;1256;70719;-70
2023/10/29 16:19:04;;;;;;;25.30;15.80;;;;;;;8.24;100.00;98302.54;109078;1256;59643;-67
2023/10/29 16:21:52;;;;;;;28.30;16.00;;;;;;;8.28;100.00;98304.16;109030;1256;58516;-65
2023/10/29 16:24:41;;;;;;;28.80;16.20;;;;;;;8.30;100.00;98302.71;109234;1253;73268;-66
2023/10/29 16:27:29;;;;;;;25.70;14.90;;;;;;;8.32;100.00;98297.36;109380;1253;66669;-69
2023/10/29 16:30:22;;;;;;;28.90;16.80;;;;;;;8.33;100.00;98294.80;109327;1253;72331;-69
2023/10/29 16:33:10;;;;;;;28.40;15.10;;;;;;;8.36;100.00;98302.70;109277;1253;59333;-68
2023/10/29 16:36:01;;;;;;;27.60;14.80;;;;;;;8.39;100.00;98307.02;109481;1253;60174;-67
2023/10/29 16:38:49;;;;;;;26.00;14.40;;;;;;;8.41;100.00;98312.94;109173;1253;71973;-66
2023/10/29 16:41:36;;;;;;;28.10;15.20;;;;;;;8.42;100.00;98319.39;109347;1253;66359;-69
2023/10/29 16:44:24;;;;;;;26.10;13.90;;;;;;;8.44;100.00;98316.40;109311;1253;71523;-68
2023/10/29 16:47:11;;;;;;;26.20;13.80;;;;;;;8.47;100.00;98312.92;109322;1253;59039;-64
2023/10/29 16:50:00;;;;;;;29.50;14.30;;;;;;;8.49;100.00;98310.80;109343;1253;58917;-69
2023/10/29 16:52:49;;;;;;;22.20;13.80;;;;;;;8.53;100.00;98319.80;109356;1253;72239;-65
2023/10/29 16:55:39;;;;;;;23.20;12.80;;;;;;;8.54;100.00;98322.89;109122;1253;68896;-65
2023/10/29 16:58:26;;;;;;;25.10;14.10;;;;;;;8.55;100.00;98325.48;109441;1253;73452;-63
2023/10/29 17:01:14;;;;;;;25.20;13.90;;;;;;;8.56;100.00;98322.72;109339;1253;58272;-66
2023/10/29 17:04:03;;;;;;;23.90;13.40;;;;;;;8.57;100.00;98320.11;109232;1253;59261;-65
2023/10/29 17:06:53;;;;;;;25.30;14.50;;;;;;;8.58;100.00;98316.27;109519;1253;73044;-68
2023/10/29 17:09:41;;;;;;;28.10;14.70;;;;;;;8.59;100.00;98319.36;109439;1253;67912;-64
2023/10/29 17:12:29;;;;;;;25.60;13.50;;;;;;;8.61;100.00;98320.41;109274;1253;70394;-64
2023/10/29 17:15:16;;;;;;;24.00;13.10;;;;;;;8.63;100.00;98324.50;109261;1253;60341;-65
2023/10/29 17:18:05;;;;;;;24.40;13.70;;;;;;;8.64;100.00;98318.75;109406;1253;60412;-65
2023/10/29 17:20:57;;;;;;;25.50;13.40;;;;;;;8.66;100.00;98312.88;109326;1253;73316;-66
2023/10/29 17:23:46;;;;;;;23.30;12.30;;;;;;;8.67;100.00;98311.33;109323;1253;69009;-65
2023/10/29 17:26:34;;;;;;;21.00;11.60;;;;;;;8.70;100.00;98306.45;109184;1253;72755;-64
2023/10/29 17:29:25;;;;;;;21.70;11.50;;;;;;;8.71;100.00;98317.48;109399;1253;59390;-67
2023/10/29 17:32:12;;;;;;;23.60;13.40;;;;;;;8.73;100.00;98321.77;109455;1253;58989;-65
2023/10/29 17:35:01;;;;;;;20.20;11.20;;;;;;;8.74;100.00;98319.92;109513;1253;70305;-63
2023/10/29 17:37:49;;;;;;;18.60;10.80;;;;;;;8.75;100.00;98316.05;109471;1253;67737;-66
2023/10/29 17:40:37;;;;;;;18.90;11.00;;;;;;;8.76;100.00;98317.92;109307;1253;71393;-63
2023/10/29 17:43:26;;;;;;;18.10;10.50;;;;;;;8.78;100.00;98327.45;109331;1253;59325;-63
2023/10/29 17:46:21;;;;;;;18.70;9.70;;;;;;;8.79;100.00;98327.13;109525;1253;60638;-64
2023/10/29 17:49:10;;;;;;;18.50;9.90;;;;;;;8.82;100.00;98324.52;109195;1253;72277;-64
2023/10/29 17:51:58;;;;;;;19.10;9.00;;;;;;;8.86;100.00;98329.36;109360;1253;68336;-64
2023/10/29 17:54:47;;;;;;;17.80;8.60;;;;;;;8.88;100.00;98329.51;109209;1253;72679;-63
2023/10/29 17:57:39;;;;;;;16.80;8.00;;;;;;;8.90;100.00;98323.30;109163;1252;60334;-64
2023/10/29 18:00:27;;;;;;;16.40;7.70;;;;;;;8.92;100.00;98320.23;109369;1253;60111;-63
2023/10/29 18:03:15;;;;;;;16.90;8.30;;;;;;;8.94;100.00;98315.97;109340;1253;72215;-62
2023/10/29 18:06:16;;;;;;;17.60;7.60;;;;;;;8.98;100.00;98311.48;109269;1253;66371;-67
2023/10/29 18:09:06;;;;;;;17.50;7.70;;;;;;;9.00;100.00;98321.40;109456;1253;73683;-63
2023/10/29 18:11:55;;;;;;;19.50;8.90;;;;;;;8.99;100.00;98326.40;109274;1254;59285;-65
2023/10/29 18:14:43;;;;;;;19.40;9.50;;;;;;;9.01;100.00;98319.02;109193;1254;58790;-64
2023/10/29 18:17:31;;;;;;;22.50;10.30;;;;;;;9.01;100.00;98315.34;109377;1254;70583;-66
2023/10/29 18:20:19;;;;;;;21.60;10.40;;;;;;;9.02;100.00;98313.55;109218;1254;67592;-64
2023/10/29 18:23:08;;;;;;;19.80;9.10;;;;;;;9.04;100.00;98320.66;109229;1254;71366;-64
2023/10/29 18:25:57;;;;;;;18.80;8.20;;;;;;;9.05;100.00;98330.65;109430;1254;59559;-66
2023/10/29 18:28:45;;;;;;;18.90;8.50;;;;;;;9.05;100.00;98335.63;109297;1254;60199;-65
2023/10/29 18:31:33;;;;;;;20.30;9.40;;;;;;;9.04;100.00;98330.38;109404;1254;72291;-65
2023/10/29 18:34:21;;;;;;;19.10;8.90;;;;;;;9.05;100.00;98326.97;109033;1256;66667;-67
2023/10/29 18:37:09;;;;;;;22.80;9.10;;;;;;;9.06;100.00;98324.76;109062;1256;72743;-66
2023/10/29 18:39:57;;;;;;;23.40;10.80;;;;;;;9.07;100.00;98312.21;108966;1256;58140;-65
2023/10/29 18:42:44;;;;;;;24.20;10.30;;;;;;;9.08;100.00;98308.20;109026;1256;58991;-65
2023/10/29 18:45:33;;;;;;;23.50;10.00;;;;;;;9.10;100.00;98306.46;109213;1256;70133;-68
2023/10/29 18:48:21;;;;;;;23.70;10.10;;;;;;;9.12;100.00;98308.73;109137;1256;66760;-65
2023/10/29 18:51:09;;;;;;;20.60;9.60;;;;;;;9.12;100.00;98309.09;108979;1256;72669;-65
2023/10/29 18:53:57;;;;;;;19.90;8.60;;;;;;;9.12;100.00;98308.03;108977;1256;60357;-62
2023/10/29 18:56:45;;;;;;;15.80;8.00;;;;;;;9.10;100.00;98306.62;109073;1257;57754;-64
2023/10/29 18:59:35;;;;;;;17.10;8.20;;;;;;;9.09;100.00;98302.27;109153;1256;72218;-63
2023/10/29 19:02:22;;;;;;;15.30;7.00;;;;;;;9.11;100.00;98286.92;109072;1256;68940;-65
2023/10/29 19:05:13;;;;;;;15.70;7.90;;;;;;;9.14;100.00;98284.67;109088;1256;71679;-63
2023/10/29 19:08:00;;;;;;;16.00;7.70;;;;;;;9.15;100.00;98287.66;109113;1256;58162;-65
2023/10/29 19:10:49;;;;;;;18.90;8.60;;;;;;;9.18;100.00;98290.08;109185;1256;60350;-64
2023/10/29 19:13:37;;;;;;;21.20;9.50;;;;;;;9.21;100.00;98284.69;109175;1254;72264;-63
2023/10/29 19:16:25;;;;;;;18.60;9.10;;;;;;;9.23;100.00;98282.41;109186;1254;67896;-64
2023/10/29 19:19:16;;;;;;;19.70;8.10;;;;;;;9.23;100.00;98283.24;109238;1259;73645;-64
2023/10/29 19:22:04;;;;;;;18.40;8.30;;;;;;;9.21;100.00;98290.49;109111;1254;57306;-64
2023/10/29 19:24:54;;;;;;;14.90;8.10;;;;;;;9.16;100.00;98282.98;109434;1254;59111;-64
2023/10/29 19:27:42;;;;;;;16.70;9.00;;;;;;;9.18;100.00;98288.08;109161;1255;70752;-66
2023/10/29 19:30:29;;;;;;;18.30;9.00;;;;;;;9.18;100.00;98282.79;109272;1254;66063;-66
2023/10/29 19:33:17;;;;;;;16.20;8.80;;;;;;;9.18;100.00;98287.92;109089;1254;72744;-64
2023/10/29 19:36:11;;;;;;;20.70;8.50;;;;;;;9.18;100.00;98294.30;109203;1254;59369;-65
2023/10/29 19:38:58;;;;;;;20.70;8.80;;;;;;;9.19;100.00;98306.47;109285;1254;60279;-65
2023/10/29 19:41:46;;;;;;;19.70;9.40;;;;;;;9.17;100.00;98315.52;109215;1254;72142;-64
2023/10/29 19:44:36;;;;;;;18.70;9.40;;;;;;;9.14;100.00;98322.88;109395;1253;68119;-65
2023/10/29 19:47:25;;;;;;;19.80;8.70;;;;;;;9.11;100.00;98323.68;109420;1254;71865;-66
2023/10/29 19:50:13;;;;;;;16.90;8.10;;;;;;;9.09;100.00;98335.96;109480;1253;59738;-65
2023/10/29 19:53:03;;;;;;;19.50;8.90;;;;;;;9.07;100.00;98345.14;109541;1253;60191;-66
2023/10/29 19:55:51;;;;;;;17.70;8.60;;;;;;;9.00;100.00;98330.45;109252;1256;72239;-66
2023/10/29 19:58:39;;;;;;;18.20;8.10;;;;;;;9.05;100.00;98320.94;109190;1254;69040;-65
2023/10/29 20:01:26;;;;;;;17.30;8.50;;;;;;;9.05;100.00;98297.25;109294;1253;70150;-64
2023/10/29 20:04:14;;;;;;;19.80;8.50;;;;;;;9.04;100.00;98285.25;109543;1253;58166;-67
2023/10/29 20:07:02;;;;;;;18.20;8.40;;;;;;;9.10;100.00;98295.88;109370;1253;58706;-67
2023/10/29 20:09:50;;;;;;;15.80;8.20;;;;;;;9.12;100.00;98314.08;109352;1253;73245;-71
2023/10/29 20:12:38;;;;;;;14.90;7.40;;;;;;;9.13;100.00;98319.98;109369;1253;67751;-67
2023/10/29 20:15:26;;;;;;;17.50;8.60;;;;;;;9.13;100.00;98308.25;109351;1253;72405;-67
2023/10/29 20:18:13;;;;;;;17.30;8.90;;;;;;;9.14;100.00;98305.48;109349;1253;58669;-66
2023/10/29 20:21:04;;;;;;;16.10;7.80;;;;;;;9.17;100.00;98313.92;109480;1254;58831;-65
2023/10/29 20:23:52;;;;;;;19.30;8.60;;;;;;;9.18;100.00;98311.80;109448;1255;73406;-65
2023/10/29 20:26:40;;;;;;;15.20;7.10;;;;;;;9.20;100.00;98306.86;109272;1254;66684;-66
2023/10/29 20:29:28;;;;;;;17.20;7.40;;;;;;;9.22;100.00;98319.46;109155;1254;71866;-65
2023/10/29 20:32:16;;;;;;;13.60;6.70;;;;;;;9.23;100.00;98315.44;109162;1254;58466;-65
2023/10/29 20:35:04;;;;;;;17.20;8.20;;;;;;;9.24;100.00;98304.02;109292;1254;59980;-64
2023/10/29 20:37:52;;;;;;;14.80;7.40;;;;;;;9.27;100.00;98302.15;109233;1254;70699;-64
2023/10/29 20:40:40;;;;;;;15.80;7.90;;;;;;;9.28;100.00;98308.96;109271;1254;68735;-64
2023/10/29 20:43:30;;;;;;;13.50;6.70;;;;;;;9.28;100.00;98295.45;109438;1255;72406;-65
2023/10/29 20:46:18;;;;;;;15.90;7.60;;;;;;;9.29;100.00;98297.18;109087;1254;58414;-63
2023/10/29 20:49:05;;;;;;;15.50;7.50;;;;;;;9.28;100.00;98276.64;109457;1255;58759;-63
2023/10/29 20:51:54;;;;;;;17.20;8.10;;;;;;;9.28;100.00;98269.25;109447;1256;72964;-64
2023/10/29 20:54:42;;;;;;;13.90;7.30;;;;;;;9.29;100.00;98270.57;109351;1254;67741;-63
2023/10/29 20:57:30;;;;;;;15.90;8.00;;;;;;;9.28;100.00;98271.17;109407;1254;71171;-66
2023/10/29 21:00:19;;;;;;;18.40;7.90;;;;;;;9.30;100.00;98269.26;109250;1254;57950;-65
2023/10/29 21:03:08;;;;;;;14.10;7.00;;;;;;;9.31;100.00;98291.83;109312;1255;59333;-66
2023/10/29 21:05:58;;;;;;;17.70;7.90;;;;;;;9.31;100.00;98294.75;109157;1254;72129;-63
2023/10/29 21:08:46;;;;;;;17.70;7.60;;;;;;;9.32;100.00;98303.02;109308;1254;67179;-65
2023/10/29 21:11:34;;;;;;;15.20;8.00;;;;;;;9.33;100.00;98305.90;109190;1254;72710;-65
2023/10/29 21:14:21;;;;;;;14.60;6.70;;;;;;;9.35;100.00;98296.31;109448;1254;58125;-66
2023/10/29 21:17:09;;;;;;;15.70;7.40;;;;;;;9.37;100.00;98294.86;109211;1254;59070;-63
2023/10/29 21:19:57;;;;;;;18.50;8.20;;;;;;;9.40;100.00;98288.23;109282;1256;72008;-65
2023/10/29 21:22:45;;;;;;;18.80;8.30;;;;;;;9.41;100.00;98286.89;109083;1254;159141;-67
2023/10/29 21:25:36;;;;;;;15.30;7.60;;;;;;;9.43;100.00;98302.44;109442;1254;72656;-65
2023/10/29 21:28:24;;;;;;;12.90;6.00;;;;;;;9.45;100.00;98300.35;108503;1260;1002228;-65
2023/10/29 21:31:12;;;;;;;13.00;6.30;;;;;;;9.48;100.00;98281.02;109433;1256;60488;-64
2023/10/29 21:34:00;;;;;;;13.30;5.90;;;;;;;9.52;100.00;98280.32;109214;1254;73060;-63
2023/10/29 21:36:48;;;;;;;10.20;4.50;;;;;;;9.57;100.00;98289.41;109306;1257;67716;-63
2023/10/29 21:39:36;;;;;;;10.00;4.30;;;;;;;9.62;100.00;98287.82;109236;1254;72532;-65
2023/10/29 21:42:24;;;;;;;9.00;4.10;;;;;;;9.68;100.00;98288.06;109287;1255;58045;-65
2023/10/29 21:45:12;;;;;;;11.60;4.10;;;;;;;9.74;100.00;98288.86;109427;1255;60279;-63
2023/10/29 21:48:00;;;;;;;10.40;4.50;;;;;;;9.81;100.00;98289.95;109128;1254;73245;-64
2023/10/29 21:51:02;;;;;;;10.80;4.10;;;;;;;9.88;100.00;98294.71;109288;1254;66071;-66
2023/10/29 21:53:50;;;;;;;10.90;3.80;;;;;;;9.95;100.00;98294.94;109263;1253;72722;-65
2023/10/29 21:56:38;;;;;;;11.20;4.00;;;;;;;10.00;100.00;98287.93;109517;1253;58154;-64
2023/10/29 21:59:26;;;;;;;9.30;3.50;;;;;;;10.04;100.00;98283.09;109540;1253;58728;-66
2023/10/29 22:02:13;;;;;;;9.00;3.60;;;;;;;10.05;100.00;98271.34;109325;1253;70895;-65
2023/10/29 22:05:00;;;;;;;8.60;3.50;;;;;;;10.12;100.00;98264.12;109556;1253;66870;-66